sensor_id;sensor_type;location;lat;lon;timestamp;temperature;humidity
19088;DHT22;9676;50.916;13.352;2022-10-28T00:01:46;18.10;75.50
19088;DHT22;9676;50.916;13.352;2022-10-28T00:04:15;18.10;75.50
19088;DHT22;9676;50.916;13.352;2022-10-28T00:06:44;18.10;75.50
19088;DHT22;9676;50.916;13.352;2022-10-28T00:09:14;18.10;75.40
19088;DHT22;9676;50.916;13.352;2022-10-28T00:11:44;18.00;75.40
19088;DHT22;9676;50.916;13.352;2022-10-28T00:14:13;18.00;75.30
19088;DHT22;9676;50.916;13.352;2022-10-28T00:16:42;18.00;75.20
19088;DHT22;9676;50.916;13.352;2022-10-28T00:19:12;18.00;75.20
19088;DHT22;9676;50.916;13.352;2022-10-28T00:21:42;18.00;75.40
19088;DHT22;9676;50.916;13.352;2022-10-28T00:24:16;18.00;75.40
19088;DHT22;9676;50.916;13.352;2022-10-28T00:26:45;18.00;75.50
19088;DHT22;9676;50.916;13.352;2022-10-28T00:29:16;17.90;75.50
19088;DHT22;9676;50.916;13.352;2022-10-28T00:31:46;18.00;75.70
19088;DHT22;9676;50.916;13.352;2022-10-28T00:34:17;18.00;75.80
19088;DHT22;9676;50.916;13.352;2022-10-28T00:36:48;18.00;75.80
19088;DHT22;9676;50.916;13.352;2022-10-28T00:39:20;18.00;75.80
19088;DHT22;9676;50.916;13.352;2022-10-28T00:41:55;18.00;75.70
19088;DHT22;9676;50.916;13.352;2022-10-28T00:44:51;18.10;75.80
19088;DHT22;9676;50.916;13.352;2022-10-28T00:47:31;18.10;75.90
19088;DHT22;9676;50.916;13.352;2022-10-28T00:50:16;18.20;76.10
19088;DHT22;9676;50.916;13.352;2022-10-28T00:52:52;18.20;76.70
19088;DHT22;9676;50.916;13.352;2022-10-28T00:55:25;18.20;76.00
19088;DHT22;9676;50.916;13.352;2022-10-28T00:57:56;18.30;76.00
19088;DHT22;9676;50.916;13.352;2022-10-28T01:00:26;18.30;75.90
19088;DHT22;9676;50.916;13.352;2022-10-28T01:02:55;18.40;75.80
19088;DHT22;9676;50.916;13.352;2022-10-28T01:05:27;18.40;75.60
19088;DHT22;9676;50.916;13.352;2022-10-28T01:08:00;18.40;75.50
19088;DHT22;9676;50.916;13.352;2022-10-28T01:14:04;18.50;75.30
19088;DHT22;9676;50.916;13.352;2022-10-28T01:16:55;18.50;75.10
19088;DHT22;9676;50.916;13.352;2022-10-28T01:19:52;18.50;74.90
19088;DHT22;9676;50.916;13.352;2022-10-28T01:22:44;18.50;75.00
19088;DHT22;9676;50.916;13.352;2022-10-28T01:25:38;18.50;74.80
19088;DHT22;9676;50.916;13.352;2022-10-28T01:28:50;18.40;74.70
19088;DHT22;9676;50.916;13.352;2022-10-28T01:31:43;18.40;74.70
19088;DHT22;9676;50.916;13.352;2022-10-28T01:34:20;18.40;74.70
19088;DHT22;9676;50.916;13.352;2022-10-28T01:36:57;18.40;74.70
19088;DHT22;9676;50.916;13.352;2022-10-28T01:39:32;18.40;74.80
19088;DHT22;9676;50.916;13.352;2022-10-28T01:42:13;18.40;74.90
19088;DHT22;9676;50.916;13.352;2022-10-28T01:44:51;18.40;75.00
19088;DHT22;9676;50.916;13.352;2022-10-28T01:47:30;18.40;75.00
19088;DHT22;9676;50.916;13.352;2022-10-28T01:50:04;18.50;75.10
19088;DHT22;9676;50.916;13.352;2022-10-28T01:52:39;18.50;75.10
19088;DHT22;9676;50.916;13.352;2022-10-28T01:55:13;18.50;75.00
19088;DHT22;9676;50.916;13.352;2022-10-28T01:57:44;18.50;75.00
19088;DHT22;9676;50.916;13.352;2022-10-28T02:00:14;18.60;75.10
19088;DHT22;9676;50.916;13.352;2022-10-28T02:02:47;18.60;75.10
19088;DHT22;9676;50.916;13.352;2022-10-28T02:05:37;18.60;75.10
19088;DHT22;9676;50.916;13.352;2022-10-28T02:08:25;18.60;75.00
19088;DHT22;9676;50.916;13.352;2022-10-28T02:11:33;18.60;74.90
19088;DHT22;9676;50.916;13.352;2022-10-28T02:14:24;18.60;74.80
19088;DHT22;9676;50.916;13.352;2022-10-28T02:17:08;18.70;74.70
19088;DHT22;9676;50.916;13.352;2022-10-28T02:19:47;18.70;74.70
19088;DHT22;9676;50.916;13.352;2022-10-28T02:22:23;18.70;74.50
19088;DHT22;9676;50.916;13.352;2022-10-28T02:25:02;18.70;74.50
19088;DHT22;9676;50.916;13.352;2022-10-28T02:27:42;18.70;74.50
19088;DHT22;9676;50.916;13.352;2022-10-28T02:30:17;18.70;74.50
19088;DHT22;9676;50.916;13.352;2022-10-28T02:32:50;18.70;74.60
19088;DHT22;9676;50.916;13.352;2022-10-28T02:35:28;18.80;74.70
19088;DHT22;9676;50.916;13.352;2022-10-28T02:38:02;18.80;74.60
19088;DHT22;9676;50.916;13.352;2022-10-28T02:40:37;18.80;74.60
19088;DHT22;9676;50.916;13.352;2022-10-28T02:43:08;18.80;74.50
19088;DHT22;9676;50.916;13.352;2022-10-28T02:45:40;18.90;74.60
19088;DHT22;9676;50.916;13.352;2022-10-28T02:48:14;18.90;74.50
19088;DHT22;9676;50.916;13.352;2022-10-28T02:50:50;18.90;74.30
19088;DHT22;9676;50.916;13.352;2022-10-28T02:53:25;18.90;74.20
19088;DHT22;9676;50.916;13.352;2022-10-28T02:55:59;18.90;74.00
19088;DHT22;9676;50.916;13.352;2022-10-28T02:58:37;18.90;74.00
19088;DHT22;9676;50.916;13.352;2022-10-28T03:01:06;18.90;73.90
19088;DHT22;9676;50.916;13.352;2022-10-28T03:03:36;19.00;74.00
19088;DHT22;9676;50.916;13.352;2022-10-28T03:06:07;19.00;73.80
19088;DHT22;9676;50.916;13.352;2022-10-28T03:08:37;19.00;73.60
19088;DHT22;9676;50.916;13.352;2022-10-28T03:11:06;19.00;73.50
19088;DHT22;9676;50.916;13.352;2022-10-28T03:13:35;19.00;73.30
19088;DHT22;9676;50.916;13.352;2022-10-28T03:16:04;19.00;73.10
19088;DHT22;9676;50.916;13.352;2022-10-28T03:18:33;19.00;73.00
19088;DHT22;9676;50.916;13.352;2022-10-28T03:21:02;19.00;72.80
19088;DHT22;9676;50.916;13.352;2022-10-28T03:23:33;19.00;72.70
19088;DHT22;9676;50.916;13.352;2022-10-28T03:26:02;18.90;72.60
19088;DHT22;9676;50.916;13.352;2022-10-28T03:28:31;18.90;72.60
19088;DHT22;9676;50.916;13.352;2022-10-28T03:31:00;18.90;72.60
19088;DHT22;9676;50.916;13.352;2022-10-28T03:33:30;18.90;72.60
19088;DHT22;9676;50.916;13.352;2022-10-28T03:35:59;18.90;72.60
19088;DHT22;9676;50.916;13.352;2022-10-28T03:38:28;18.90;72.70
19088;DHT22;9676;50.916;13.352;2022-10-28T03:40:58;18.90;72.70
19088;DHT22;9676;50.916;13.352;2022-10-28T03:43:27;18.90;72.70
19088;DHT22;9676;50.916;13.352;2022-10-28T03:45:56;18.90;72.70
19088;DHT22;9676;50.916;13.352;2022-10-28T03:48:25;18.90;72.80
19088;DHT22;9676;50.916;13.352;2022-10-28T03:50:55;18.90;72.90
19088;DHT22;9676;50.916;13.352;2022-10-28T03:53:24;18.90;72.90
19088;DHT22;9676;50.916;13.352;2022-10-28T03:56:00;19.00;73.10
19088;DHT22;9676;50.916;13.352;2022-10-28T03:58:30;19.00;73.10
19088;DHT22;9676;50.916;13.352;2022-10-28T04:01:04;19.00;73.10
19088;DHT22;9676;50.916;13.352;2022-10-28T04:03:36;19.00;73.10
19088;DHT22;9676;50.916;13.352;2022-10-28T04:06:06;19.00;73.10
19088;DHT22;9676;50.916;13.352;2022-10-28T04:08:36;19.10;73.20
19088;DHT22;9676;50.916;13.352;2022-10-28T04:11:08;19.10;73.10
19088;DHT22;9676;50.916;13.352;2022-10-28T04:13:37;19.10;73.70
19088;DHT22;9676;50.916;13.352;2022-10-28T04:16:06;19.20;73.10
19088;DHT22;9676;50.916;13.352;2022-10-28T04:18:35;19.20;73.10
19088;DHT22;9676;50.916;13.352;2022-10-28T04:21:05;19.20;73.10
19088;DHT22;9676;50.916;13.352;2022-10-28T04:23:34;19.30;73.10
19088;DHT22;9676;50.916;13.352;2022-10-28T04:26:04;19.20;72.90
19088;DHT22;9676;50.916;13.352;2022-10-28T04:28:35;19.30;72.90
19088;DHT22;9676;50.916;13.352;2022-10-28T04:31:04;19.30;72.80
19088;DHT22;9676;50.916;13.352;2022-10-28T04:33:33;19.30;72.70
19088;DHT22;9676;50.916;13.352;2022-10-28T04:36:03;19.30;72.60
19088;DHT22;9676;50.916;13.352;2022-10-28T04:38:32;19.30;72.50
19088;DHT22;9676;50.916;13.352;2022-10-28T04:41:01;19.30;72.40
19088;DHT22;9676;50.916;13.352;2022-10-28T04:43:30;19.20;72.20
19088;DHT22;9676;50.916;13.352;2022-10-28T04:46:01;19.20;72.00
19088;DHT22;9676;50.916;13.352;2022-10-28T04:48:32;19.20;72.00
19088;DHT22;9676;50.916;13.352;2022-10-28T04:51:02;19.10;72.00
19088;DHT22;9676;50.916;13.352;2022-10-28T04:53:31;19.10;72.10
19088;DHT22;9676;50.916;13.352;2022-10-28T04:56:00;19.10;72.10
19088;DHT22;9676;50.916;13.352;2022-10-28T04:58:29;19.10;72.20
19088;DHT22;9676;50.916;13.352;2022-10-28T05:00:58;19.10;72.20
19088;DHT22;9676;50.916;13.352;2022-10-28T05:03:35;19.00;72.10
19088;DHT22;9676;50.916;13.352;2022-10-28T05:06:04;19.00;72.10
19088;DHT22;9676;50.916;13.352;2022-10-28T05:08:34;19.00;72.20
19088;DHT22;9676;50.916;13.352;2022-10-28T05:11:03;19.00;72.20
19088;DHT22;9676;50.916;13.352;2022-10-28T05:13:32;19.00;72.30
19088;DHT22;9676;50.916;13.352;2022-10-28T05:16:01;19.00;72.30
19088;DHT22;9676;50.916;13.352;2022-10-28T05:18:32;19.00;72.40
19088;DHT22;9676;50.916;13.352;2022-10-28T05:21:01;19.00;72.40
19088;DHT22;9676;50.916;13.352;2022-10-28T05:23:30;19.00;72.40
19088;DHT22;9676;50.916;13.352;2022-10-28T05:25:59;19.00;72.40
19088;DHT22;9676;50.916;13.352;2022-10-28T05:28:28;19.00;72.30
19088;DHT22;9676;50.916;13.352;2022-10-28T05:30:57;19.00;72.30
19088;DHT22;9676;50.916;13.352;2022-10-28T05:33:26;19.00;72.20
19088;DHT22;9676;50.916;13.352;2022-10-28T05:35:59;19.00;72.10
19088;DHT22;9676;50.916;13.352;2022-10-28T05:38:28;19.00;72.00
19088;DHT22;9676;50.916;13.352;2022-10-28T05:40:57;19.00;71.90
19088;DHT22;9676;50.916;13.352;2022-10-28T05:43:26;19.00;72.00
19088;DHT22;9676;50.916;13.352;2022-10-28T05:45:56;18.90;71.90
19088;DHT22;9676;50.916;13.352;2022-10-28T05:48:25;18.90;72.00
19088;DHT22;9676;50.916;13.352;2022-10-28T05:50:55;18.90;72.10
19088;DHT22;9676;50.916;13.352;2022-10-28T05:53:25;18.90;72.20
19088;DHT22;9676;50.916;13.352;2022-10-28T05:55:54;18.90;72.40
19088;DHT22;9676;50.916;13.352;2022-10-28T05:58:23;18.90;72.40
19088;DHT22;9676;50.916;13.352;2022-10-28T06:00:52;18.90;72.60
19088;DHT22;9676;50.916;13.352;2022-10-28T06:03:21;18.90;72.70
19088;DHT22;9676;50.916;13.352;2022-10-28T06:05:57;18.90;72.90
19088;DHT22;9676;50.916;13.352;2022-10-28T06:08:28;18.90;73.00
19088;DHT22;9676;50.916;13.352;2022-10-28T06:10:57;18.90;73.20
19088;DHT22;9676;50.916;13.352;2022-10-28T06:13:27;18.90;73.30
19088;DHT22;9676;50.916;13.352;2022-10-28T06:15:56;19.00;73.50
19088;DHT22;9676;50.916;13.352;2022-10-28T06:18:25;19.00;73.50
19088;DHT22;9676;50.916;13.352;2022-10-28T06:20:56;19.10;73.60
19088;DHT22;9676;50.916;13.352;2022-10-28T06:23:28;19.10;73.70
19088;DHT22;9676;50.916;13.352;2022-10-28T06:25:58;19.10;74.40
19088;DHT22;9676;50.916;13.352;2022-10-28T06:28:28;19.20;73.90
19088;DHT22;9676;50.916;13.352;2022-10-28T06:31:02;19.20;74.00
19088;DHT22;9676;50.916;13.352;2022-10-28T06:33:31;19.30;74.30
19088;DHT22;9676;50.916;13.352;2022-10-28T06:36:01;19.30;74.30
19088;DHT22;9676;50.916;13.352;2022-10-28T06:38:31;19.40;74.60
19088;DHT22;9676;50.916;13.352;2022-10-28T06:41:01;19.50;74.70
19088;DHT22;9676;50.916;13.352;2022-10-28T06:43:30;19.50;74.90
19088;DHT22;9676;50.916;13.352;2022-10-28T06:46:00;19.60;75.10
19088;DHT22;9676;50.916;13.352;2022-10-28T06:48:30;19.70;75.30
19088;DHT22;9676;50.916;13.352;2022-10-28T06:50:59;19.80;75.50
19088;DHT22;9676;50.916;13.352;2022-10-28T06:53:28;19.90;75.80
19088;DHT22;9676;50.916;13.352;2022-10-28T06:55:59;20.00;76.00
19088;DHT22;9676;50.916;13.352;2022-10-28T06:58:28;20.10;76.10
19088;DHT22;9676;50.916;13.352;2022-10-28T07:01:02;20.20;76.30
19088;DHT22;9676;50.916;13.352;2022-10-28T07:03:32;20.40;76.40
19088;DHT22;9676;50.916;13.352;2022-10-28T07:06:01;20.50;76.40
19088;DHT22;9676;50.916;13.352;2022-10-28T07:08:31;20.60;76.60
19088;DHT22;9676;50.916;13.352;2022-10-28T07:11:01;20.80;76.70
19088;DHT22;9676;50.916;13.352;2022-10-28T07:13:30;20.90;76.50
19088;DHT22;9676;50.916;13.352;2022-10-28T07:16:00;21.00;76.60
19088;DHT22;9676;50.916;13.352;2022-10-28T07:18:29;21.10;76.50
19088;DHT22;9676;50.916;13.352;2022-10-28T07:20:58;21.30;76.60
19088;DHT22;9676;50.916;13.352;2022-10-28T07:23:28;21.40;77.30
19088;DHT22;9676;50.916;13.352;2022-10-28T07:26:01;21.50;76.70
19088;DHT22;9676;50.916;13.352;2022-10-28T07:28:30;21.60;76.60
19088;DHT22;9676;50.916;13.352;2022-10-28T07:31:00;21.80;77.00
19088;DHT22;9676;50.916;13.352;2022-10-28T07:33:29;22.00;77.50
19088;DHT22;9676;50.916;13.352;2022-10-28T07:36:01;22.20;78.00
19088;DHT22;9676;50.916;13.352;2022-10-28T07:38:31;22.50;78.10
19088;DHT22;9676;50.916;13.352;2022-10-28T07:41:04;22.70;78.70
19088;DHT22;9676;50.916;13.352;2022-10-28T07:43:35;23.00;78.20
19088;DHT22;9676;50.916;13.352;2022-10-28T07:46:05;23.30;78.50
19088;DHT22;9676;50.916;13.352;2022-10-28T07:48:35;23.50;78.50
19088;DHT22;9676;50.916;13.352;2022-10-28T07:51:06;23.80;78.90
19088;DHT22;9676;50.916;13.352;2022-10-28T07:53:36;24.10;79.30
19088;DHT22;9676;50.916;13.352;2022-10-28T07:56:09;24.40;79.30
19088;DHT22;9676;50.916;13.352;2022-10-28T07:58:41;24.70;78.40
19088;DHT22;9676;50.916;13.352;2022-10-28T08:01:13;25.10;78.70
19088;DHT22;9676;50.916;13.352;2022-10-28T08:03:43;25.40;78.70
19088;DHT22;9676;50.916;13.352;2022-10-28T08:06:16;25.80;79.40
19088;DHT22;9676;50.916;13.352;2022-10-28T08:08:51;26.20;79.60
19088;DHT22;9676;50.916;13.352;2022-10-28T08:11:23;26.60;80.00
19088;DHT22;9676;50.916;13.352;2022-10-28T08:13:52;27.20;79.90
19088;DHT22;9676;50.916;13.352;2022-10-28T08:16:23;27.70;80.50
19088;DHT22;9676;50.916;13.352;2022-10-28T08:18:54;28.20;79.70
19088;DHT22;9676;50.916;13.352;2022-10-28T08:21:24;28.70;77.70
19088;DHT22;9676;50.916;13.352;2022-10-28T08:23:54;29.00;75.40
19088;DHT22;9676;50.916;13.352;2022-10-28T08:26:25;29.20;73.50
19088;DHT22;9676;50.916;13.352;2022-10-28T08:28:54;29.30;71.80
19088;DHT22;9676;50.916;13.352;2022-10-28T08:31:25;29.40;71.20
19088;DHT22;9676;50.916;13.352;2022-10-28T08:33:54;29.50;71.20
19088;DHT22;9676;50.916;13.352;2022-10-28T08:36:23;29.70;71.40
19088;DHT22;9676;50.916;13.352;2022-10-28T08:38:53;29.90;71.40
19088;DHT22;9676;50.916;13.352;2022-10-28T08:41:30;30.10;71.40
19088;DHT22;9676;50.916;13.352;2022-10-28T08:44:34;30.30;69.90
19088;DHT22;9676;50.916;13.352;2022-10-28T08:47:24;30.80;70.30
19088;DHT22;9676;50.916;13.352;2022-10-28T08:50:02;31.10;70.00
19088;DHT22;9676;50.916;13.352;2022-10-28T08:52:41;31.60;71.00
19088;DHT22;9676;50.916;13.352;2022-10-28T08:55:15;31.90;69.90
19088;DHT22;9676;50.916;13.352;2022-10-28T08:57:52;32.30;69.30
19088;DHT22;9676;50.916;13.352;2022-10-28T09:00:25;32.70;68.20
19088;DHT22;9676;50.916;13.352;2022-10-28T09:03:13;33.10;68.60
19088;DHT22;9676;50.916;13.352;2022-10-28T09:05:45;33.40;66.30
19088;DHT22;9676;50.916;13.352;2022-10-28T09:08:21;33.60;66.70
19088;DHT22;9676;50.916;13.352;2022-10-28T09:11:28;33.80;64.90
19088;DHT22;9676;50.916;13.352;2022-10-28T09:14:14;34.00;63.60
19088;DHT22;9676;50.916;13.352;2022-10-28T09:16:56;34.20;63.30
19088;DHT22;9676;50.916;13.352;2022-10-28T09:19:39;34.40;62.60
19088;DHT22;9676;50.916;13.352;2022-10-28T09:22:23;34.50;61.70
19088;DHT22;9676;50.916;13.352;2022-10-28T09:24:57;34.60;60.90
19088;DHT22;9676;50.916;13.352;2022-10-28T09:27:46;34.50;60.60
19088;DHT22;9676;50.916;13.352;2022-10-28T09:30:30;34.40;58.20
19088;DHT22;9676;50.916;13.352;2022-10-28T09:33:13;34.20;58.20
19088;DHT22;9676;50.916;13.352;2022-10-28T09:35:47;33.90;57.00
19088;DHT22;9676;50.916;13.352;2022-10-28T09:38:23;33.60;57.50
19088;DHT22;9676;50.916;13.352;2022-10-28T09:40:58;33.30;56.60
19088;DHT22;9676;50.916;13.352;2022-10-28T09:43:32;33.00;56.60
19088;DHT22;9676;50.916;13.352;2022-10-28T09:46:07;32.80;56.80
19088;DHT22;9676;50.916;13.352;2022-10-28T09:48:42;32.60;56.30
19088;DHT22;9676;50.916;13.352;2022-10-28T09:51:25;32.40;56.50
19088;DHT22;9676;50.916;13.352;2022-10-28T09:53:58;32.10;55.40
19088;DHT22;9676;50.916;13.352;2022-10-28T09:56:29;31.90;56.00
19088;DHT22;9676;50.916;13.352;2022-10-28T09:59:00;31.70;55.70
19088;DHT22;9676;50.916;13.352;2022-10-28T10:01:33;31.40;55.50
19088;DHT22;9676;50.916;13.352;2022-10-28T10:04:15;31.20;55.30
19088;DHT22;9676;50.916;13.352;2022-10-28T10:06:49;31.00;55.20
19088;DHT22;9676;50.916;13.352;2022-10-28T10:09:23;30.80;55.60
19088;DHT22;9676;50.916;13.352;2022-10-28T10:12:13;30.60;55.50
19088;DHT22;9676;50.916;13.352;2022-10-28T10:15:04;30.40;56.10
19088;DHT22;9676;50.916;13.352;2022-10-28T10:17:56;30.30;56.10
19088;DHT22;9676;50.916;13.352;2022-10-28T10:20:27;30.30;56.40
19088;DHT22;9676;50.916;13.352;2022-10-28T10:23:27;30.20;56.20
19088;DHT22;9676;50.916;13.352;2022-10-28T10:26:00;30.20;55.40
19088;DHT22;9676;50.916;13.352;2022-10-28T10:28:39;30.10;55.70
19088;DHT22;9676;50.916;13.352;2022-10-28T10:31:17;30.00;55.50
19088;DHT22;9676;50.916;13.352;2022-10-28T10:33:51;29.90;55.10
19088;DHT22;9676;50.916;13.352;2022-10-28T10:36:23;29.80;55.10
19088;DHT22;9676;50.916;13.352;2022-10-28T10:38:56;29.70;55.30
19088;DHT22;9676;50.916;13.352;2022-10-28T10:41:33;29.60;55.30
19088;DHT22;9676;50.916;13.352;2022-10-28T10:44:24;29.40;55.00
19088;DHT22;9676;50.916;13.352;2022-10-28T10:47:17;29.30;54.70
19088;DHT22;9676;50.916;13.352;2022-10-28T10:49:50;29.30;54.80
19088;DHT22;9676;50.916;13.352;2022-10-28T10:52:22;29.10;55.30
19088;DHT22;9676;50.916;13.352;2022-10-28T10:55:00;29.10;55.40
19088;DHT22;9676;50.916;13.352;2022-10-28T10:57:31;29.00;55.10
19088;DHT22;9676;50.916;13.352;2022-10-28T11:00:01;29.00;55.60
19088;DHT22;9676;50.916;13.352;2022-10-28T11:02:33;29.00;55.90
19088;DHT22;9676;50.916;13.352;2022-10-28T11:05:08;29.00;56.50
19088;DHT22;9676;50.916;13.352;2022-10-28T11:07:44;29.10;56.80
19088;DHT22;9676;50.916;13.352;2022-10-28T11:10:23;29.30;56.90
19088;DHT22;9676;50.916;13.352;2022-10-28T11:12:55;29.50;57.00
19088;DHT22;9676;50.916;13.352;2022-10-28T11:15:27;29.70;57.30
19088;DHT22;9676;50.916;13.352;2022-10-28T11:17:59;29.80;57.10
19088;DHT22;9676;50.916;13.352;2022-10-28T11:20:40;30.00;57.00
19088;DHT22;9676;50.916;13.352;2022-10-28T11:23:26;30.10;56.20
19088;DHT22;9676;50.916;13.352;2022-10-28T11:26:04;30.30;55.80
19088;DHT22;9676;50.916;13.352;2022-10-28T11:28:50;30.30;55.90
19088;DHT22;9676;50.916;13.352;2022-10-28T11:31:44;30.40;54.80
19088;DHT22;9676;50.916;13.352;2022-10-28T11:34:34;30.30;54.30
19088;DHT22;9676;50.916;13.352;2022-10-28T11:37:32;30.30;54.10
19088;DHT22;9676;50.916;13.352;2022-10-28T11:40:20;30.10;53.80
19088;DHT22;9676;50.916;13.352;2022-10-28T11:43:09;30.00;53.60
19088;DHT22;9676;50.916;13.352;2022-10-28T11:45:55;29.90;53.50
19088;DHT22;9676;50.916;13.352;2022-10-28T11:48:39;29.80;53.60
19088;DHT22;9676;50.916;13.352;2022-10-28T11:51:22;29.70;53.50
19088;DHT22;9676;50.916;13.352;2022-10-28T11:54:22;29.60;53.40
19088;DHT22;9676;50.916;13.352;2022-10-28T11:57:02;29.40;53.10
19088;DHT22;9676;50.916;13.352;2022-10-28T12:00:07;29.30;53.40
19088;DHT22;9676;50.916;13.352;2022-10-28T12:02:57;29.10;52.90
19088;DHT22;9676;50.916;13.352;2022-10-28T12:05:37;29.00;53.00
19088;DHT22;9676;50.916;13.352;2022-10-28T12:08:28;28.90;53.10
19088;DHT22;9676;50.916;13.352;2022-10-28T12:11:12;28.70;53.00
19088;DHT22;9676;50.916;13.352;2022-10-28T12:13:53;28.60;53.10
19088;DHT22;9676;50.916;13.352;2022-10-28T12:16:39;28.50;53.40
19088;DHT22;9676;50.916;13.352;2022-10-28T12:19:16;28.40;53.60
19088;DHT22;9676;50.916;13.352;2022-10-28T12:21:57;28.40;53.50
19088;DHT22;9676;50.916;13.352;2022-10-28T12:24:32;28.30;53.40
19088;DHT22;9676;50.916;13.352;2022-10-28T12:27:10;28.30;53.80
19088;DHT22;9676;50.916;13.352;2022-10-28T12:29:47;28.20;53.50
19088;DHT22;9676;50.916;13.352;2022-10-28T12:32:21;28.20;53.80
19088;DHT22;9676;50.916;13.352;2022-10-28T12:34:59;28.20;53.80
19088;DHT22;9676;50.916;13.352;2022-10-28T12:37:37;28.20;53.80
19088;DHT22;9676;50.916;13.352;2022-10-28T12:40:15;28.20;53.80
19088;DHT22;9676;50.916;13.352;2022-10-28T12:42:52;28.20;53.90
19088;DHT22;9676;50.916;13.352;2022-10-28T12:45:25;28.20;53.80
19088;DHT22;9676;50.916;13.352;2022-10-28T12:47:58;28.20;54.60
19088;DHT22;9676;50.916;13.352;2022-10-28T12:50:41;28.20;53.80
19088;DHT22;9676;50.916;13.352;2022-10-28T12:53:23;28.30;53.80
19088;DHT22;9676;50.916;13.352;2022-10-28T12:56:05;28.30;53.70
19088;DHT22;9676;50.916;13.352;2022-10-28T12:58:40;28.30;54.00
19088;DHT22;9676;50.916;13.352;2022-10-28T13:01:23;28.30;53.80
19088;DHT22;9676;50.916;13.352;2022-10-28T13:03:55;28.30;54.00
19088;DHT22;9676;50.916;13.352;2022-10-28T13:06:58;28.40;54.10
19088;DHT22;9676;50.916;13.352;2022-10-28T13:09:46;28.50;53.60
19088;DHT22;9676;50.916;13.352;2022-10-28T13:15:41;28.50;53.20
19088;DHT22;9676;50.916;13.352;2022-10-28T13:18:49;28.50;53.30
19088;DHT22;9676;50.916;13.352;2022-10-28T13:22:10;28.50;53.20
19088;DHT22;9676;50.916;13.352;2022-10-28T13:24:54;28.50;53.30
19088;DHT22;9676;50.916;13.352;2022-10-28T13:27:26;28.40;53.50
19088;DHT22;9676;50.916;13.352;2022-10-28T13:29:57;28.40;53.70
19088;DHT22;9676;50.916;13.352;2022-10-28T13:32:34;28.40;53.60
19088;DHT22;9676;50.916;13.352;2022-10-28T13:35:14;28.40;53.50
19088;DHT22;9676;50.916;13.352;2022-10-28T13:37:50;28.40;53.30
19088;DHT22;9676;50.916;13.352;2022-10-28T13:43:59;28.30;53.00
19088;DHT22;9676;50.916;13.352;2022-10-28T13:47:02;28.30;52.90
19088;DHT22;9676;50.916;13.352;2022-10-28T13:50:21;28.20;52.70
19088;DHT22;9676;50.916;13.352;2022-10-28T13:56:44;28.10;52.50
19088;DHT22;9676;50.916;13.352;2022-10-28T13:59:21;28.00;52.50
19088;DHT22;9676;50.916;13.352;2022-10-28T14:02:03;27.80;52.50
19088;DHT22;9676;50.916;13.352;2022-10-28T14:05:04;27.70;52.20
19088;DHT22;9676;50.916;13.352;2022-10-28T14:07:39;27.60;52.40
19088;DHT22;9676;50.916;13.352;2022-10-28T14:10:22;27.50;52.30
19088;DHT22;9676;50.916;13.352;2022-10-28T14:12:55;27.40;52.30
19088;DHT22;9676;50.916;13.352;2022-10-28T14:15:29;27.30;52.40
19088;DHT22;9676;50.916;13.352;2022-10-28T14:18:02;27.20;52.40
19088;DHT22;9676;50.916;13.352;2022-10-28T14:20:55;27.10;52.40
19088;DHT22;9676;50.916;13.352;2022-10-28T14:30:27;26.90;52.50
19088;DHT22;9676;50.916;13.352;2022-10-28T14:33:19;26.80;52.50
19088;DHT22;9676;50.916;13.352;2022-10-28T14:36:14;26.70;52.70
19088;DHT22;9676;50.916;13.352;2022-10-28T14:39:17;26.60;52.80
19088;DHT22;9676;50.916;13.352;2022-10-28T14:42:13;26.60;53.00
19088;DHT22;9676;50.916;13.352;2022-10-28T14:45:02;26.50;53.10
19088;DHT22;9676;50.916;13.352;2022-10-28T14:48:01;26.50;53.20
19088;DHT22;9676;50.916;13.352;2022-10-28T14:51:01;26.40;53.10
19088;DHT22;9676;50.916;13.352;2022-10-28T14:53:33;26.40;53.20
19088;DHT22;9676;50.916;13.352;2022-10-28T14:56:06;26.30;53.20
19088;DHT22;9676;50.916;13.352;2022-10-28T14:58:39;26.30;53.20
19088;DHT22;9676;50.916;13.352;2022-10-28T15:01:24;26.30;53.30
19088;DHT22;9676;50.916;13.352;2022-10-28T15:03:57;26.20;53.20
19088;DHT22;9676;50.916;13.352;2022-10-28T15:06:32;26.20;53.30
19088;DHT22;9676;50.916;13.352;2022-10-28T15:09:10;26.20;53.30
19088;DHT22;9676;50.916;13.352;2022-10-28T15:11:47;26.10;53.20
19088;DHT22;9676;50.916;13.352;2022-10-28T15:14:31;26.10;53.20
19088;DHT22;9676;50.916;13.352;2022-10-28T15:17:10;26.10;53.20
19088;DHT22;9676;50.916;13.352;2022-10-28T15:19:41;26.00;53.20
19088;DHT22;9676;50.916;13.352;2022-10-28T15:22:17;26.00;53.20
19088;DHT22;9676;50.916;13.352;2022-10-28T15:24:59;25.90;53.20
19088;DHT22;9676;50.916;13.352;2022-10-28T15:27:31;25.90;53.20
19088;DHT22;9676;50.916;13.352;2022-10-28T15:30:02;25.80;53.20
19088;DHT22;9676;50.916;13.352;2022-10-28T15:32:33;25.80;53.20
19088;DHT22;9676;50.916;13.352;2022-10-28T15:35:38;25.70;53.10
19088;DHT22;9676;50.916;13.352;2022-10-28T15:41:40;25.60;52.90
19088;DHT22;9676;50.916;13.352;2022-10-28T15:44:31;25.60;53.00
19088;DHT22;9676;50.916;13.352;2022-10-28T15:47:17;25.50;52.90
19088;DHT22;9676;50.916;13.352;2022-10-28T15:50:00;25.40;52.90
19088;DHT22;9676;50.916;13.352;2022-10-28T15:52:35;25.40;53.00
19088;DHT22;9676;50.916;13.352;2022-10-28T15:55:35;25.30;53.00
19088;DHT22;9676;50.916;13.352;2022-10-28T15:58:35;25.20;52.90
19088;DHT22;9676;50.916;13.352;2022-10-28T16:01:25;25.20;52.90
19088;DHT22;9676;50.916;13.352;2022-10-28T16:03:56;25.20;53.00
19088;DHT22;9676;50.916;13.352;2022-10-28T16:06:28;25.10;53.00
19088;DHT22;9676;50.916;13.352;2022-10-28T16:09:00;25.00;53.00
19088;DHT22;9676;50.916;13.352;2022-10-28T16:11:34;25.00;53.10
19088;DHT22;9676;50.916;13.352;2022-10-28T16:14:25;25.00;53.10
19088;DHT22;9676;50.916;13.352;2022-10-28T16:17:12;24.90;52.90
19088;DHT22;9676;50.916;13.352;2022-10-28T16:19:48;24.90;52.90
19088;DHT22;9676;50.916;13.352;2022-10-28T16:22:20;24.80;52.90
19088;DHT22;9676;50.916;13.352;2022-10-28T16:24:52;24.80;52.90
19088;DHT22;9676;50.916;13.352;2022-10-28T16:27:23;24.80;53.00
19088;DHT22;9676;50.916;13.352;2022-10-28T16:29:53;24.70;52.90
19088;DHT22;9676;50.916;13.352;2022-10-28T16:32:27;24.70;52.90
19088;DHT22;9676;50.916;13.352;2022-10-28T16:35:02;24.70;52.90
19088;DHT22;9676;50.916;13.352;2022-10-28T16:37:33;24.60;52.80
19088;DHT22;9676;50.916;13.352;2022-10-28T16:40:09;24.60;53.50
19088;DHT22;9676;50.916;13.352;2022-10-28T16:42:57;24.60;52.80
19088;DHT22;9676;50.916;13.352;2022-10-28T16:45:28;24.60;52.80
19088;DHT22;9676;50.916;13.352;2022-10-28T16:47:58;24.50;52.80
19088;DHT22;9676;50.916;13.352;2022-10-28T16:50:27;24.50;52.80
19088;DHT22;9676;50.916;13.352;2022-10-28T16:52:56;24.50;52.80